createdAt,value
2023-01-19T05:49:07.602Z,-1.00
2023-01-19T05:52:09.305Z,-1.00
2023-01-19T05:55:11.003Z,-1.00
2023-01-19T05:58:13.755Z,-1.00
2023-01-19T06:01:15.455Z,-1.00
2023-01-19T06:04:17.269Z,-1.00
2023-01-19T06:07:19.163Z,-1.00
2023-01-19T06:10:20.908Z,-1.00
2023-01-19T06:13:22.999Z,-1.00
2023-01-19T06:16:25.085Z,-1.00
2023-01-19T06:19:29.015Z,-1.00
2023-01-19T06:22:30.658Z,-1.00
2023-01-19T06:25:32.405Z,-1.00
2023-01-19T06:28:34.306Z,-1.10
2023-01-19T06:31:36.302Z,-1.10
2023-01-19T06:34:40.457Z,-1.10
2023-01-19T06:38:03.154Z,-1.20
2023-01-19T06:41:05.056Z,-1.30
2023-01-19T06:44:06.778Z,-1.30
2023-01-19T06:47:15.251Z,-1.30
2023-01-19T06:50:17.878Z,-1.30
2023-01-19T06:53:20.813Z,-1.40
2023-01-19T06:56:22.559Z,-1.40
2023-01-19T06:59:25.560Z,-1.50
2023-01-19T07:02:28.713Z,-1.50
2023-01-19T07:05:30.662Z,-1.50
2023-01-19T07:08:54.334Z,-1.50
2023-01-19T07:11:56.016Z,-1.50
2023-01-19T07:15:00.531Z,-1.50
2023-01-19T07:18:08.050Z,-1.50
2023-01-19T07:21:09.753Z,-1.50
2023-01-19T07:24:11.500Z,-1.50
2023-01-19T07:27:31.966Z,-1.50
2023-01-19T07:30:33.995Z,-1.50
2023-01-19T07:33:35.930Z,-1.50
2023-01-19T07:36:37.779Z,-1.50
2023-01-19T07:39:41.660Z,-1.50
2023-01-19T07:42:50.354Z,-1.50
2023-01-19T07:45:52.588Z,-1.50
2023-01-19T07:48:54.591Z,-1.40
2023-01-19T07:51:56.369Z,-1.40
2023-01-19T07:54:59.242Z,-1.30
2023-01-19T07:58:01.198Z,-1.30
2023-01-19T08:01:07.543Z,-1.30
2023-01-19T08:04:10.575Z,-1.30
2023-01-19T08:07:12.469Z,-1.20
2023-01-19T08:10:14.387Z,-1.10
2023-01-19T08:13:16.083Z,-1.10
2023-01-19T08:16:17.807Z,-1.10
2023-01-19T08:19:41.539Z,-1.20
2023-01-19T08:22:46.186Z,-1.30
2023-01-19T08:25:47.930Z,-1.30
2023-01-19T08:28:50.941Z,-1.30
2023-01-19T08:31:55.313Z,-1.30
2023-01-19T08:34:57.069Z,-1.30
2023-01-19T08:38:01.402Z,-1.30
2023-01-19T08:41:03.124Z,-1.20
2023-01-19T08:44:05.049Z,-1.20
2023-01-19T08:47:08.788Z,-1.10
2023-01-19T08:50:11.395Z,-1.10
2023-01-19T08:53:13.413Z,-1.10
2023-01-19T08:56:20.580Z,-1.10
2023-01-19T08:59:22.446Z,-1.00
2023-01-19T09:02:24.223Z,-1.00
2023-01-19T09:05:25.946Z,-1.00
2023-01-19T09:08:27.764Z,-1.00
2023-01-19T09:11:29.461Z,-1.00
2023-01-19T09:14:31.195Z,-1.00
2023-01-19T09:17:33.019Z,-1.00
2023-01-19T09:20:36.191Z,-1.00
2023-01-19T09:23:38.285Z,-1.00
2023-01-19T09:26:40.700Z,-1.00
2023-01-19T09:29:44.009Z,-0.90
2023-01-19T09:32:45.972Z,-0.70
2023-01-19T09:35:48.417Z,-0.70
2023-01-19T09:38:50.430Z,-0.60
2023-01-19T09:42:01.382Z,-0.50
2023-01-19T09:45:05.207Z,-0.40
2023-01-19T09:48:28.881Z,-0.30
2023-01-19T09:51:39.024Z,-0.20
2023-01-19T09:54:45.522Z,-0.10
2023-01-19T09:57:47.376Z,0.00
2023-01-19T10:00:56.744Z,0.00
2023-01-19T10:04:37.423Z,0.20
2023-01-19T10:07:58.437Z,0.40
2023-01-19T10:11:00.456Z,0.50
2023-01-19T10:14:04.375Z,0.60
2023-01-19T10:17:18.072Z,0.80
2023-01-19T10:20:33.339Z,0.80
2023-01-19T10:23:41.793Z,1.00
2023-01-19T10:26:45.869Z,1.00
2023-01-19T10:29:47.773Z,1.10
2023-01-19T10:32:49.540Z,1.20
2023-01-19T10:35:51.413Z,1.30
2023-01-19T10:38:53.350Z,1.40
2023-01-19T10:41:55.086Z,1.50
2023-01-19T10:44:56.994Z,1.60
2023-01-19T10:48:00.482Z,1.70
2023-01-19T10:51:03.133Z,1.80
2023-01-19T10:54:05.422Z,1.80
2023-01-19T10:57:10.377Z,2.00
2023-01-19T11:00:33.152Z,2.10
2023-01-19T11:03:34.830Z,2.10
2023-01-19T11:06:36.553Z,2.20
2023-01-19T11:09:38.448Z,2.40
2023-01-19T11:12:44.486Z,2.50
2023-01-19T11:15:59.635Z,2.50
2023-01-19T11:19:03.143Z,2.70
2023-01-19T11:22:11.898Z,2.80
2023-01-19T11:25:22.011Z,2.90
2023-01-19T11:28:30.076Z,3.00
2023-01-19T11:31:35.580Z,3.10
2023-01-19T11:34:38.632Z,3.10
2023-01-19T11:37:42.835Z,3.10
2023-01-19T11:40:56.214Z,3.10
2023-01-19T11:44:00.248Z,3.30
2023-01-19T11:47:06.678Z,3.30
2023-01-19T11:50:26.443Z,3.50
2023-01-19T11:53:30.789Z,3.60
2023-01-19T11:56:32.521Z,3.70
2023-01-19T11:59:34.203Z,3.90
2023-01-19T12:02:43.633Z,4.00
2023-01-19T12:05:48.362Z,4.10
2023-01-19T12:08:57.270Z,4.10
2023-01-19T12:12:04.073Z,4.10
2023-01-19T12:15:25.868Z,4.00
2023-01-19T12:18:48.424Z,4.00
2023-01-19T12:21:50.168Z,4.10
2023-01-19T12:24:58.134Z,4.40
2023-01-19T12:27:59.826Z,4.50
2023-01-19T12:31:01.874Z,4.50
2023-01-19T12:34:25.939Z,4.50
2023-01-19T12:37:30.717Z,4.50
2023-01-19T12:40:35.173Z,4.50
2023-01-19T12:43:36.906Z,4.50
2023-01-19T12:46:40.395Z,4.50
2023-01-19T12:49:46.604Z,4.50
2023-01-19T12:53:02.232Z,4.50
2023-01-19T12:56:06.120Z,4.50
2023-01-19T12:59:23.182Z,4.50
2023-01-19T13:02:25.244Z,4.50
2023-01-19T13:05:38.946Z,4.50
2023-01-19T13:09:00.906Z,4.50
2023-01-19T13:12:14.618Z,4.50
2023-01-19T13:15:34.167Z,4.70
2023-01-19T13:18:35.909Z,4.70
2023-01-19T13:21:39.784Z,4.70
2023-01-19T13:25:13.226Z,4.90
2023-01-19T13:28:16.246Z,4.90
2023-01-19T13:31:18.245Z,4.90
2023-01-19T13:34:21.431Z,4.90
2023-01-19T13:37:26.096Z,4.70
2023-01-19T13:40:33.701Z,4.70
2023-01-19T13:43:37.145Z,4.70
2023-01-19T13:46:38.877Z,4.70
2023-01-19T13:49:41.537Z,4.80
2023-01-19T13:52:43.488Z,4.90
2023-01-19T13:55:45.200Z,4.90
2023-01-19T13:59:10.282Z,4.90
2023-01-19T14:02:12.392Z,5.00
2023-01-19T14:05:15.319Z,5.00
2023-01-19T14:08:19.132Z,5.00
2023-01-19T14:11:22.992Z,4.90
2023-01-19T14:14:26.150Z,4.90
2023-01-19T14:17:29.400Z,4.90
2023-01-19T14:20:32.756Z,4.90
2023-01-19T14:23:55.337Z,5.00
2023-01-19T14:27:24.333Z,5.00
2023-01-19T14:30:26.889Z,4.90
2023-01-19T14:33:42.453Z,4.90
2023-01-19T14:36:44.114Z,4.90
2023-01-19T14:40:08.133Z,4.90
2023-01-19T14:43:11.015Z,4.90
2023-01-19T14:46:19.234Z,4.80
2023-01-19T14:49:38.157Z,4.70
2023-01-19T14:52:42.839Z,4.60
2023-01-19T14:55:47.949Z,4.50
2023-01-19T14:58:49.764Z,4.50
2023-01-19T15:01:51.544Z,4.50
2023-01-19T15:04:55.308Z,4.50
2023-01-19T15:08:00.508Z,4.50
2023-01-19T15:11:07.180Z,4.40
2023-01-19T15:14:13.633Z,4.30
2023-01-19T15:17:25.287Z,4.20
2023-01-19T15:20:26.966Z,4.00
2023-01-19T15:23:29.812Z,3.90
2023-01-19T15:26:31.524Z,3.90
2023-01-19T15:29:34.071Z,3.80
2023-01-19T15:32:35.800Z,3.70
2023-01-19T15:35:37.431Z,3.60
2023-01-19T15:38:39.328Z,3.50
2023-01-19T15:41:41.038Z,3.50
2023-01-19T15:44:42.680Z,3.40
2023-01-19T15:47:44.425Z,3.30
2023-01-19T15:50:46.636Z,3.30
2023-01-19T15:53:48.678Z,3.20
2023-01-19T15:56:51.226Z,3.20
2023-01-19T15:59:53.319Z,3.10
2023-01-19T16:02:58.114Z,3.10
2023-01-19T16:06:01.544Z,3.10
2023-01-19T16:10:01.823Z,3.10
2023-01-19T16:13:03.893Z,3.00
2023-01-19T16:16:12.282Z,2.90
2023-01-19T16:23:36.575Z,2.50
2023-01-19T16:26:38.381Z,2.50
2023-01-19T16:34:02.551Z,2.40
2023-01-19T16:37:04.196Z,2.40
2023-01-19T16:40:06.438Z,2.40
2023-01-19T16:43:08.098Z,2.40
2023-01-19T16:46:18.357Z,2.30
2023-01-19T16:49:26.806Z,2.20
2023-01-19T16:52:29.776Z,2.10
2023-01-19T16:55:31.478Z,2.00
2023-01-19T17:03:14.448Z,1.90
2023-01-19T17:06:18.219Z,1.70
2023-01-19T17:09:20.095Z,1.60
2023-01-19T17:12:21.880Z,1.50
2023-01-19T17:15:23.825Z,1.50
2023-01-19T17:18:30.528Z,1.40
2023-01-19T17:21:33.497Z,1.40
2023-01-19T17:24:35.172Z,1.30
2023-01-19T17:27:37.045Z,1.20
2023-01-19T17:30:38.776Z,1.10
2023-01-19T17:33:40.759Z,1.00
2023-01-19T17:36:42.405Z,1.00
2023-01-19T17:39:44.172Z,1.00
2023-01-19T17:42:45.845Z,1.00
2023-01-19T17:45:47.549Z,1.00
2023-01-19T17:48:53.710Z,1.00
2023-01-19T17:51:55.809Z,1.00
2023-01-19T17:54:57.826Z,1.00
2023-01-19T17:58:00.436Z,1.00
2023-01-19T18:01:22.489Z,0.90
2023-01-19T18:04:24.110Z,0.90
2023-01-19T18:07:25.914Z,0.80
2023-01-19T18:10:28.223Z,0.80
2023-01-19T18:13:29.986Z,0.70
2023-01-19T18:16:32.494Z,0.60
2023-01-19T18:19:34.277Z,0.50
2023-01-19T18:22:35.916Z,0.50
2023-01-19T18:25:37.860Z,0.40
2023-01-19T18:28:40.026Z,0.30
2023-01-19T18:31:42.769Z,0.40
2023-01-19T18:34:47.364Z,0.40
2023-01-19T18:37:52.300Z,0.40
2023-01-19T18:41:23.323Z,0.40
2023-01-19T18:44:25.040Z,0.40
2023-01-19T18:47:27.392Z,0.40
2023-01-19T18:50:29.047Z,0.40
2023-01-19T18:53:32.048Z,0.50
2023-01-19T18:56:33.803Z,0.50
2023-01-19T18:59:36.556Z,0.60
2023-01-19T19:02:38.219Z,0.60
2023-01-19T19:05:40.040Z,0.60
2023-01-19T19:08:43.671Z,0.60
2023-01-19T19:11:45.379Z,0.60
2023-01-19T19:14:47.023Z,0.50
2023-01-19T19:17:49.099Z,0.50
2023-01-19T19:20:50.772Z,0.50
2023-01-19T19:23:53.550Z,0.40
2023-01-19T19:26:55.202Z,0.30
2023-01-19T19:29:56.919Z,0.30
2023-01-19T19:32:59.793Z,0.20
2023-01-19T19:36:01.605Z,0.10
2023-01-19T19:39:03.666Z,0.00
2023-01-19T19:42:05.319Z,0.00
2023-01-19T19:45:07.500Z,0.00
2023-01-19T19:48:11.300Z,-0.10
2023-01-19T19:51:18.743Z,-0.10
2023-01-19T19:54:20.885Z,-0.10
2023-01-19T19:57:23.278Z,-0.10
2023-01-19T20:00:25.052Z,-0.10
2023-01-19T20:03:27.047Z,-0.10
2023-01-19T20:06:28.748Z,-0.10
2023-01-19T20:09:30.598Z,-0.10
2023-01-19T20:12:32.228Z,0.00
2023-01-19T20:15:38.136Z,0.00
2023-01-19T20:18:42.178Z,0.00
2023-01-19T20:21:44.068Z,0.00
2023-01-19T20:24:45.784Z,0.00
2023-01-19T20:27:47.612Z,0.00
2023-01-19T20:30:49.377Z,0.00
2023-01-19T20:33:54.758Z,0.00
2023-01-19T20:36:57.784Z,0.00
2023-01-19T20:39:59.592Z,0.00
2023-01-19T20:43:01.288Z,0.00
2023-01-19T20:46:03.282Z,0.00
2023-01-19T20:49:05.027Z,0.00
2023-01-19T20:52:06.672Z,0.00
2023-01-19T20:55:08.848Z,0.00
2023-01-19T20:58:12.244Z,0.00
2023-01-19T21:01:19.034Z,0.00
2023-01-19T21:04:20.860Z,0.00
2023-01-19T21:07:22.813Z,0.00
2023-01-19T21:10:24.583Z,0.00
2023-01-19T21:13:26.504Z,-0.10
2023-01-19T21:16:29.690Z,-0.10
2023-01-19T21:19:31.538Z,-0.10
2023-01-19T21:22:33.184Z,-0.10
2023-01-19T21:25:34.853Z,-0.10
2023-01-19T21:28:37.702Z,-0.10
2023-01-19T21:31:40.803Z,-0.10
2023-01-19T21:34:45.516Z,-0.10
2023-01-19T21:37:47.729Z,-0.20
2023-01-19T21:40:50.318Z,-0.20
2023-01-19T21:43:52.125Z,-0.20
2023-01-19T21:46:55.782Z,-0.20
2023-01-19T21:49:57.576Z,-0.20
2023-01-19T21:52:59.337Z,-0.20
2023-01-19T21:56:03.477Z,-0.20
2023-01-19T21:59:05.466Z,-0.20
2023-01-19T22:02:10.902Z,-0.20
2023-01-19T22:05:13.119Z,-0.30
2023-01-19T22:08:15.181Z,-0.30
2023-01-19T22:11:18.359Z,-0.30
2023-01-19T22:14:19.995Z,-0.30
2023-01-19T22:17:40.366Z,-0.30
2023-01-19T22:20:42.101Z,-0.40
2023-01-19T22:23:44.827Z,-0.40
2023-01-19T22:26:46.472Z,-0.40
2023-01-19T22:29:48.222Z,-0.30
2023-01-19T22:32:50.050Z,-0.30
2023-01-19T22:35:51.740Z,-0.30
2023-01-19T22:38:55.093Z,-0.30
2023-01-19T22:41:56.779Z,-0.20
2023-01-19T22:44:58.520Z,-0.20
2023-01-19T22:48:00.268Z,-0.20
2023-01-19T22:51:01.937Z,-0.20
2023-01-19T22:54:06.128Z,-0.10
2023-01-19T22:57:29.759Z,-0.10
2023-01-19T23:00:31.606Z,0.00
2023-01-19T23:03:33.580Z,0.00
2023-01-19T23:06:36.011Z,0.20
2023-01-19T23:09:38.155Z,0.30
2023-01-19T23:12:39.893Z,0.30
2023-01-19T23:15:41.633Z,0.40
